createdAt,value
2019-05-26T00:02:12.761Z,9.80
2019-05-26T00:05:02.211Z,9.80
2019-05-26T00:07:51.602Z,9.80
2019-05-26T00:10:41.402Z,9.80
2019-05-26T00:13:29.779Z,9.80
2019-05-26T00:16:19.107Z,9.80
2019-05-26T00:19:08.030Z,9.80
2019-05-26T00:21:57.327Z,9.80
2019-05-26T00:24:46.215Z,9.80
2019-05-26T00:27:35.371Z,9.80
2019-05-26T00:30:24.480Z,9.80
2019-05-26T00:33:13.592Z,9.80
2019-05-26T00:36:02.973Z,9.80
2019-05-26T00:38:51.519Z,9.80
2019-05-26T00:41:40.893Z,9.80
2019-05-26T00:44:29.933Z,9.80
2019-05-26T00:47:19.329Z,9.80
2019-05-26T00:50:09.819Z,9.80
2019-05-26T00:52:59.107Z,9.80
2019-05-26T00:55:48.111Z,9.80
2019-05-26T00:58:37.448Z,9.80
2019-05-26T01:01:26.497Z,9.80
2019-05-26T01:04:15.234Z,9.90
2019-05-26T01:07:04.211Z,9.90
2019-05-26T01:09:53.179Z,9.90
2019-05-26T01:12:42.444Z,9.90
2019-05-26T01:15:31.854Z,9.80
2019-05-26T01:18:21.288Z,9.80
2019-05-26T01:21:10.657Z,9.80
2019-05-26T01:23:59.903Z,9.80
2019-05-26T01:26:49.301Z,9.80
2019-05-26T01:29:38.654Z,9.80
2019-05-26T01:32:28.028Z,9.80
2019-05-26T01:35:17.531Z,9.80
2019-05-26T01:38:22.550Z,9.70
2019-05-26T01:40:58.485Z,9.70
2019-05-26T01:43:47.680Z,9.70
2019-05-26T01:46:36.971Z,9.70
2019-05-26T01:49:26.150Z,9.80
2019-05-26T01:52:15.287Z,9.80
2019-05-26T01:55:08.837Z,9.80
2019-05-26T01:57:58.847Z,9.90
2019-05-26T02:00:48.198Z,9.90
2019-05-26T02:03:37.682Z,9.90
2019-05-26T02:06:27.033Z,10.00
2019-05-26T02:09:16.224Z,10.00
2019-05-26T02:12:05.697Z,10.00
2019-05-26T02:14:54.758Z,10.10
2019-05-26T02:17:44.039Z,10.10
2019-05-26T02:20:32.682Z,10.10
2019-05-26T02:23:22.074Z,10.20
2019-05-26T02:26:11.216Z,10.20
2019-05-26T02:29:00.606Z,10.30
2019-05-26T02:31:49.448Z,10.30
2019-05-26T02:34:38.022Z,10.30
2019-05-26T02:37:29.493Z,10.30
2019-05-26T02:40:19.449Z,10.40
2019-05-26T02:43:08.799Z,10.40
2019-05-26T02:45:58.076Z,10.40
2019-05-26T02:48:47.134Z,10.40
2019-05-26T02:51:36.559Z,10.40
2019-05-26T02:54:26.112Z,10.40
2019-05-26T02:57:15.052Z,10.40
2019-05-26T03:00:07.077Z,10.40
2019-05-26T03:02:56.727Z,10.40
2019-05-26T03:05:47.322Z,10.40
2019-05-26T03:08:38.578Z,10.40
2019-05-26T03:11:30.512Z,10.50
2019-05-26T03:14:21.719Z,10.50
2019-05-26T03:17:10.782Z,10.50
2019-05-26T03:20:01.891Z,10.50
2019-05-26T03:22:52.216Z,10.50
2019-05-26T03:25:41.764Z,10.50
2019-05-26T03:28:31.242Z,10.60
2019-05-26T03:31:20.283Z,10.60
2019-05-26T03:34:09.781Z,10.50
2019-05-26T03:36:58.299Z,10.60
2019-05-26T03:39:47.698Z,10.60
2019-05-26T03:42:36.777Z,10.50
2019-05-26T03:45:45.845Z,10.60
2019-05-26T03:48:35.064Z,10.60
2019-05-26T03:51:24.117Z,10.60
2019-05-26T03:54:13.521Z,10.60
2019-05-26T03:57:02.896Z,10.60
2019-05-26T03:59:52.152Z,10.70
2019-05-26T04:02:41.419Z,10.70
2019-05-26T04:05:30.375Z,10.70
2019-05-26T04:08:18.912Z,10.70
2019-05-26T04:11:08.014Z,10.80
2019-05-26T04:13:57.475Z,10.80
2019-05-26T04:16:46.313Z,10.80
2019-05-26T04:19:36.012Z,10.90
2019-05-26T04:22:25.191Z,10.90
2019-05-26T04:25:14.028Z,10.90
2019-05-26T04:28:03.121Z,11.10
2019-05-26T04:30:51.959Z,11.20
2019-05-26T04:33:41.113Z,11.30
2019-05-26T04:36:30.493Z,11.40
2019-05-26T04:39:19.225Z,11.60
2019-05-26T04:42:09.036Z,11.80
2019-05-26T04:44:58.558Z,12.00
2019-05-26T04:47:47.770Z,12.10
2019-05-26T04:50:37.356Z,12.30
2019-05-26T04:53:26.786Z,12.50
2019-05-26T04:56:16.208Z,12.70
2019-05-26T04:59:06.019Z,12.90
2019-05-26T05:01:55.352Z,13.10
2019-05-26T05:04:44.407Z,13.20
2019-05-26T05:07:33.923Z,13.20
2019-05-26T05:10:24.058Z,13.20
2019-05-26T05:13:12.850Z,13.40
2019-05-26T05:16:02.005Z,13.60
2019-05-26T05:18:51.085Z,13.60
2019-05-26T05:21:39.837Z,13.60
2019-05-26T05:24:29.268Z,13.50
2019-05-26T05:27:19.300Z,13.50
2019-05-26T05:30:09.704Z,13.50
2019-05-26T05:32:59.165Z,13.60
2019-05-26T05:35:48.328Z,13.60
2019-05-26T05:38:37.189Z,13.50
2019-05-26T05:41:26.458Z,13.40
2019-05-26T05:44:15.621Z,13.40
2019-05-26T05:47:05.302Z,13.20
2019-05-26T05:49:53.977Z,13.30
2019-05-26T05:52:43.438Z,13.30
2019-05-26T05:55:32.139Z,13.30
2019-05-26T05:58:21.259Z,13.20
2019-05-26T06:01:10.174Z,13.20
2019-05-26T06:03:59.252Z,13.20
2019-05-26T06:06:48.663Z,13.30
2019-05-26T06:09:37.808Z,13.40
2019-05-26T06:12:26.984Z,13.40
2019-05-26T06:15:17.721Z,13.50
2019-05-26T06:18:07.377Z,13.70
2019-05-26T06:20:56.543Z,14.00
2019-05-26T06:23:45.705Z,14.30
2019-05-26T06:26:34.716Z,14.60
2019-05-26T06:29:23.911Z,14.70
2019-05-26T06:32:13.461Z,14.70
2019-05-26T06:35:03.075Z,14.80
2019-05-26T06:37:53.498Z,14.90
2019-05-26T06:40:42.978Z,14.80
2019-05-26T06:43:32.330Z,14.70
2019-05-26T06:46:21.109Z,14.80
2019-05-26T06:49:10.669Z,14.90
2019-05-26T06:52:00.192Z,15.00
2019-05-26T06:54:49.738Z,15.20
2019-05-26T06:57:38.573Z,15.30
2019-05-26T07:00:27.534Z,15.60
2019-05-26T07:03:16.910Z,15.50
2019-05-26T07:06:06.197Z,15.90
2019-05-26T07:08:54.937Z,16.30
2019-05-26T07:11:54.185Z,16.50
2019-05-26T07:14:35.533Z,16.50
2019-05-26T07:17:24.563Z,16.40
2019-05-26T07:20:15.910Z,16.60
2019-05-26T07:23:07.178Z,16.30
2019-05-26T07:25:56.006Z,16.20
2019-05-26T07:28:45.468Z,16.20
2019-05-26T07:31:34.337Z,16.30
2019-05-26T07:34:24.278Z,16.40
2019-05-26T07:37:12.995Z,16.40
2019-05-26T07:40:02.537Z,16.50
2019-05-26T07:42:52.024Z,16.50
2019-05-26T07:45:41.073Z,16.40
2019-05-26T07:48:29.834Z,16.30
2019-05-26T07:51:19.519Z,16.10
2019-05-26T07:54:24.298Z,16.00
2019-05-26T07:56:59.686Z,15.90
2019-05-26T07:59:48.754Z,15.90
2019-05-26T08:02:37.718Z,16.00
2019-05-26T08:05:27.174Z,16.10
2019-05-26T08:08:16.769Z,16.00
2019-05-26T08:11:06.079Z,16.10
2019-05-26T08:13:55.210Z,16.10
2019-05-26T08:16:43.738Z,16.30
2019-05-26T08:19:32.818Z,16.40
2019-05-26T08:22:21.373Z,16.40
2019-05-26T08:25:11.149Z,16.60
2019-05-26T08:28:00.522Z,16.70
2019-05-26T08:30:49.908Z,17.00
2019-05-26T08:33:39.474Z,17.10
2019-05-26T08:36:28.446Z,17.10
2019-05-26T08:39:17.523Z,17.00
2019-05-26T08:42:06.665Z,16.80
2019-05-26T08:44:56.346Z,16.70
2019-05-26T08:47:45.382Z,16.70
2019-05-26T08:50:34.985Z,16.90
2019-05-26T08:53:23.885Z,17.00
2019-05-26T08:56:13.524Z,17.00
2019-05-26T08:59:03.017Z,16.90
2019-05-26T09:01:52.473Z,16.90
2019-05-26T09:04:41.822Z,16.80
2019-05-26T09:07:31.215Z,16.80
2019-05-26T09:10:21.651Z,16.70
2019-05-26T09:13:11.501Z,16.70
2019-05-26T09:16:00.859Z,16.70
2019-05-26T09:18:50.544Z,16.80
2019-05-26T09:21:39.714Z,16.80
2019-05-26T09:24:28.583Z,17.00
2019-05-26T09:27:17.475Z,17.20
2019-05-26T09:30:08.753Z,17.40
2019-05-26T09:32:57.858Z,17.40
2019-05-26T09:35:47.192Z,17.30
2019-05-26T09:38:36.637Z,17.10
2019-05-26T09:41:25.630Z,17.00
2019-05-26T09:44:14.410Z,16.80
2019-05-26T09:47:04.271Z,16.70
2019-05-26T09:49:53.545Z,16.60
2019-05-26T09:52:43.023Z,16.50
2019-05-26T09:55:32.768Z,16.50
2019-05-26T09:58:21.775Z,16.40
2019-05-26T10:01:10.722Z,16.50
2019-05-26T10:03:59.825Z,16.60
2019-05-26T10:06:49.063Z,16.50
2019-05-26T10:09:38.041Z,16.60
2019-05-26T10:12:27.789Z,16.40
2019-05-26T10:15:17.296Z,16.20
2019-05-26T10:18:06.442Z,16.10
2019-05-26T10:20:55.465Z,15.90
2019-05-26T10:23:44.587Z,15.90
2019-05-26T10:26:34.040Z,15.80
2019-05-26T10:29:23.361Z,15.60
2019-05-26T10:32:12.374Z,15.70
2019-05-26T10:35:01.141Z,15.60
2019-05-26T10:37:50.406Z,15.60
2019-05-26T10:40:39.370Z,15.70
2019-05-26T10:43:28.738Z,15.80
2019-05-26T10:46:18.319Z,16.00
2019-05-26T10:49:07.201Z,16.00
2019-05-26T10:51:56.347Z,16.10
2019-05-26T10:54:45.249Z,16.20
2019-05-26T10:57:34.893Z,16.30
2019-05-26T11:00:25.498Z,16.50
2019-05-26T11:03:14.768Z,16.50
2019-05-26T11:06:05.008Z,16.40
2019-05-26T11:08:54.466Z,16.40
2019-05-26T11:11:43.794Z,16.60
2019-05-26T11:14:33.193Z,16.60
2019-05-26T11:17:22.944Z,16.60
2019-05-26T11:20:14.278Z,16.50
2019-05-26T11:23:03.222Z,16.30
2019-05-26T11:25:52.120Z,16.30
2019-05-26T11:28:41.453Z,16.40
2019-05-26T11:31:30.927Z,16.70
2019-05-26T11:34:20.508Z,17.20
2019-05-26T11:37:09.570Z,17.60
2019-05-26T11:39:58.770Z,17.70
2019-05-26T11:42:48.725Z,18.00
2019-05-26T11:45:37.170Z,18.20
2019-05-26T11:48:26.757Z,18.50
2019-05-26T11:51:15.638Z,18.70
2019-05-26T11:54:05.398Z,18.70
2019-05-26T11:56:54.972Z,19.00
2019-05-26T11:59:47.168Z,19.30
2019-05-26T12:02:34.748Z,19.50
2019-05-26T12:05:23.711Z,19.50
2019-05-26T12:08:12.663Z,19.40
2019-05-26T12:11:02.017Z,19.20
2019-05-26T12:13:51.407Z,19.20
2019-05-26T12:16:40.686Z,19.10
2019-05-26T12:19:29.516Z,19.10
2019-05-26T12:22:18.503Z,19.20
2019-05-26T12:25:09.816Z,19.30
2019-05-26T12:27:59.461Z,19.40
2019-05-26T12:30:48.557Z,19.40
2019-05-26T12:33:37.947Z,19.40
2019-05-26T12:36:26.734Z,19.40
2019-05-26T12:39:16.163Z,19.60
2019-05-26T12:42:05.527Z,19.90
2019-05-26T12:44:54.511Z,20.30
2019-05-26T12:47:43.568Z,20.80
2019-05-26T12:50:33.231Z,21.00
2019-05-26T12:53:22.108Z,21.10
2019-05-26T12:56:10.965Z,21.10
2019-05-26T12:59:00.124Z,21.50
2019-05-26T13:01:48.686Z,21.90
2019-05-26T13:04:37.763Z,22.20
2019-05-26T13:07:27.213Z,22.20
2019-05-26T13:10:18.501Z,22.20
2019-05-26T13:13:07.797Z,22.10
2019-05-26T13:15:57.278Z,22.00
2019-05-26T13:18:45.938Z,21.50
2019-05-26T13:21:33.911Z,21.10
2019-05-26T13:24:22.536Z,20.70
2019-05-26T13:27:11.117Z,20.30
2019-05-26T13:29:59.638Z,20.00
2019-05-26T13:32:48.730Z,19.80
2019-05-26T13:35:38.996Z,19.60
2019-05-26T13:38:27.378Z,19.60
2019-05-26T13:41:16.010Z,19.80
2019-05-26T13:44:04.767Z,20.20
2019-05-26T13:46:52.930Z,20.50
2019-05-26T13:49:41.453Z,20.90
2019-05-26T13:52:30.137Z,21.30
2019-05-26T13:55:18.788Z,21.80
2019-05-26T13:58:07.245Z,22.00
2019-05-26T14:00:56.071Z,21.90
2019-05-26T14:03:44.827Z,21.70
2019-05-26T14:06:33.631Z,21.60
2019-05-26T14:09:21.904Z,21.60
2019-05-26T14:12:09.750Z,21.60
2019-05-26T14:14:57.983Z,21.40
2019-05-26T14:17:46.543Z,21.20
2019-05-26T14:20:40.242Z,20.90
2019-05-26T14:23:28.311Z,20.70
2019-05-26T14:26:16.841Z,20.40
2019-05-26T14:29:05.141Z,20.30
2019-05-26T14:31:53.536Z,20.20
2019-05-26T14:34:41.978Z,20.20
2019-05-26T14:37:29.820Z,20.20
2019-05-26T14:40:18.327Z,20.10
2019-05-26T14:43:06.700Z,20.00
2019-05-26T14:45:55.055Z,19.80
2019-05-26T14:48:43.202Z,19.80
2019-05-26T14:51:32.063Z,19.80
2019-05-26T14:54:20.542Z,20.10
2019-05-26T14:57:08.466Z,20.40
2019-05-26T14:59:56.543Z,20.60
2019-05-26T15:02:45.277Z,20.70
2019-05-26T15:05:33.606Z,20.70
2019-05-26T15:08:21.984Z,20.60
2019-05-26T15:11:10.395Z,20.50
2019-05-26T15:13:58.603Z,20.30
2019-05-26T15:16:46.995Z,20.10
2019-05-26T15:19:35.197Z,20.10
2019-05-26T15:22:23.255Z,20.10
2019-05-26T15:25:11.950Z,20.00
2019-05-26T15:28:00.369Z,20.10
2019-05-26T15:30:48.381Z,20.30
2019-05-26T15:33:36.568Z,20.40
2019-05-26T15:36:25.537Z,20.50
2019-05-26T15:39:13.090Z,20.60
2019-05-26T15:42:01.821Z,20.50
2019-05-26T15:44:50.385Z,20.60
2019-05-26T15:47:39.032Z,20.60
2019-05-26T15:50:27.323Z,20.60
2019-05-26T15:53:15.625Z,20.70
2019-05-26T15:56:03.857Z,20.60
2019-05-26T15:58:52.108Z,20.60
2019-05-26T16:01:40.645Z,20.60
2019-05-26T16:04:29.118Z,20.50
2019-05-26T16:07:17.529Z,20.50
2019-05-26T16:10:10.521Z,20.60
2019-05-26T16:12:58.453Z,20.50
2019-05-26T16:15:47.111Z,20.60
2019-05-26T16:18:37.291Z,20.60
2019-05-26T16:21:28.379Z,20.60
2019-05-26T16:24:16.025Z,20.50
2019-05-26T16:27:19.278Z,20.40
2019-05-26T16:30:01.532Z,20.30
2019-05-26T16:32:50.120Z,20.20
2019-05-26T16:35:38.050Z,20.00
2019-05-26T16:38:26.703Z,19.90
2019-05-26T16:41:14.865Z,19.80
2019-05-26T16:44:04.728Z,19.70
2019-05-26T16:46:56.527Z,19.60
2019-05-26T16:49:43.098Z,19.50
2019-05-26T16:52:32.036Z,19.40
2019-05-26T16:55:20.077Z,19.30
2019-05-26T16:58:08.916Z,19.20
2019-05-26T17:00:56.918Z,19.00
2019-05-26T17:03:45.514Z,18.90
2019-05-26T17:06:33.167Z,18.70
2019-05-26T17:09:22.067Z,18.60
2019-05-26T17:12:10.223Z,18.40
2019-05-26T17:14:59.713Z,18.20
2019-05-26T17:17:48.478Z,18.10
2019-05-26T17:20:37.224Z,17.90
2019-05-26T17:23:26.295Z,17.80
2019-05-26T17:26:15.633Z,17.70
2019-05-26T17:29:04.936Z,17.50
2019-05-26T17:31:54.311Z,17.40
2019-05-26T17:34:43.481Z,17.30
2019-05-26T17:37:32.439Z,17.30
2019-05-26T17:40:24.064Z,17.20
2019-05-26T17:43:12.926Z,17.20
2019-05-26T17:46:02.227Z,17.10
2019-05-26T17:48:51.798Z,17.10
2019-05-26T17:51:40.723Z,17.00
2019-05-26T17:54:29.983Z,17.00
2019-05-26T17:57:19.166Z,16.90
2019-05-26T18:00:13.746Z,16.80
2019-05-26T18:03:03.231Z,16.70
2019-05-26T18:05:53.436Z,16.60
2019-05-26T18:08:42.619Z,16.50
2019-05-26T18:11:31.665Z,16.40
2019-05-26T18:14:21.848Z,16.40
2019-05-26T18:17:10.981Z,16.30
2019-05-26T18:20:00.509Z,16.30
2019-05-26T18:22:49.507Z,16.40
2019-05-26T18:25:38.127Z,16.30
2019-05-26T18:28:27.182Z,16.30
2019-05-26T18:31:16.320Z,16.20
2019-05-26T18:34:05.736Z,16.20
2019-05-26T18:36:55.391Z,16.20
2019-05-26T18:39:44.598Z,16.10
2019-05-26T18:42:33.827Z,16.10
2019-05-26T18:45:23.307Z,16.10
2019-05-26T18:48:12.647Z,16.00
2019-05-26T18:51:02.078Z,16.00
2019-05-26T18:53:51.123Z,15.90
2019-05-26T18:56:40.380Z,15.90
2019-05-26T18:59:29.074Z,15.80
2019-05-26T19:02:18.516Z,15.80
2019-05-26T19:05:09.185Z,15.80
2019-05-26T19:07:58.286Z,15.70
2019-05-26T19:10:47.612Z,15.70
2019-05-26T19:13:37.094Z,15.70
2019-05-26T19:16:26.163Z,15.60
2019-05-26T19:19:16.074Z,15.60
2019-05-26T19:22:05.460Z,15.50
2019-05-26T19:24:54.593Z,15.50
2019-05-26T19:27:43.654Z,15.50
2019-05-26T19:30:33.272Z,15.40
2019-05-26T19:33:22.821Z,15.40
2019-05-26T19:36:12.411Z,15.30
2019-05-26T19:39:01.757Z,15.30
2019-05-26T19:41:51.063Z,15.30
2019-05-26T19:44:40.387Z,15.30
2019-05-26T19:47:29.812Z,15.30
2019-05-26T19:50:19.175Z,15.20
2019-05-26T19:53:08.267Z,15.30
2019-05-26T19:55:57.720Z,15.20
2019-05-26T19:58:46.648Z,15.20
2019-05-26T20:01:36.058Z,15.20
2019-05-26T20:04:25.113Z,15.20
2019-05-26T20:07:15.073Z,15.20
2019-05-26T20:10:08.721Z,15.20
2019-05-26T20:12:57.419Z,15.20
2019-05-26T20:15:46.385Z,15.20
2019-05-26T20:18:35.512Z,15.20
2019-05-26T20:21:24.710Z,15.30
2019-05-26T20:24:14.115Z,15.20
2019-05-26T20:27:03.573Z,15.20
2019-05-26T20:29:52.796Z,15.20
2019-05-26T20:32:42.099Z,15.20
2019-05-26T20:35:31.371Z,15.20
2019-05-26T20:38:20.866Z,15.30
2019-05-26T20:41:10.444Z,15.30
2019-05-26T20:43:59.702Z,15.30
2019-05-26T20:46:49.470Z,15.20
2019-05-26T20:49:45.407Z,15.30
2019-05-26T20:52:30.173Z,15.30
2019-05-26T20:55:21.069Z,15.20
2019-05-26T20:58:09.927Z,15.30
2019-05-26T21:00:59.199Z,15.20
2019-05-26T21:03:47.998Z,15.20
2019-05-26T21:06:37.533Z,15.20
2019-05-26T21:09:26.743Z,15.20
2019-05-26T21:12:17.503Z,15.20
2019-05-26T21:15:08.643Z,15.20
2019-05-26T21:17:57.696Z,15.20
2019-05-26T21:20:47.062Z,15.20
2019-05-26T21:23:35.547Z,15.30
2019-05-26T21:26:25.090Z,15.20
2019-05-26T21:29:14.611Z,15.20
2019-05-26T21:32:03.514Z,15.20
2019-05-26T21:34:52.897Z,15.30
2019-05-26T21:37:42.057Z,15.30
2019-05-26T21:40:30.929Z,15.30
2019-05-26T21:43:20.799Z,15.30
2019-05-26T21:46:27.050Z,15.30
2019-05-26T21:49:15.826Z,15.30
2019-05-26T21:52:04.893Z,15.30
2019-05-26T21:54:54.262Z,15.30
2019-05-26T21:57:43.124Z,15.20
2019-05-26T22:00:46.268Z,15.20
2019-05-26T22:03:35.188Z,15.20
2019-05-26T22:06:23.767Z,15.30
2019-05-26T22:09:13.212Z,15.20
2019-05-26T22:12:01.674Z,15.20
2019-05-26T22:14:51.029Z,15.10
2019-05-26T22:17:39.869Z,15.10
2019-05-26T22:20:29.051Z,15.00
2019-05-26T22:23:44.125Z,15.00
2019-05-26T22:26:46.905Z,15.00
2019-05-26T22:30:33.637Z,15.00
2019-05-26T22:40:20.748Z,14.80
2019-05-26T22:43:33.118Z,14.80
